Flight Track Log - Related Links

Times and Time Zones

All times are in EDT time to prevent confusion due to time zone crossing. See the JBU1329 flight status page for this flight to view local times or setup timezone preferences in your user account.

Time Position Orientation Groundspeed Altitude Reporting Facility
EDT Latitude Longitude Course Direction KTS MPH feet Rate Location/Type
Wed 09:09:30 AM 42.3667 -70.9667 270° West 154 177 800  Level KA90
Wed 09:10:24 AM 42.3667 -70.9167 90° East 158 182 2,300 2,263 Climbing KA90
Wed 09:11:24 AM 42.3833 -70.8500 71° East 211 243 5,100 2,467 Climbing KA90
Wed 09:11:54 AM 42.3928 -70.8011 75° East 251 289 6,000 2,667 Climbing Boston Center
Wed 09:12:00 AM 42.2850 -70.7392 228° Southwest  Level FlightAware Approximate
Wed 09:12:54 AM 42.3478 -70.7236 128° Southeast 298 343 9,100  Level Boston Center
Wed 09:13:00 AM 42.2221 -70.8429 240° Southwest  Level FlightAware Approximate
Wed 09:13:54 AM 42.2628 -70.7428 189° South 243 280 11,100  Level Boston Center
Wed 09:14:00 AM 42.1833 -70.9632 270° West  Level FlightAware Approximate
Wed 09:14:54 AM 42.2142 -70.8536 239° Southwest 240 276 14,100  Level Boston Center
Wed 09:15:54 AM 42.1992 -70.9772 261° West 273 314 16,700 2,500 Climbing Boston Center
Wed 09:16:54 AM 42.1819 -71.1064 260° West 314 361 19,100 2,300 Climbing Boston Center
Wed 09:17:54 AM 42.1647 -71.2358 260° West 347 399 21,300 2,400 Climbing Boston Center
Wed 09:18:54 AM 42.1453 -71.3678 259° West 360 414 23,900 2,300 Climbing Boston Center
Wed 09:19:54 AM 42.1236 -71.5108 259° West 355 409 25,900 1,550 Climbing Boston Center
Wed 09:20:54 AM 42.1017 -71.6369 257° West 355 409 27,000 550 Climbing Boston Center
Wed 09:21:54 AM 42.0817 -71.7717 259° West 360 414 27,000 350 Level Boston Center
Wed 09:22:54 AM 42.0636 -71.9003 259° West 360 414 27,700 1,100 Climbing Boston Center
Wed 09:23:54 AM 42.0308 -72.0264 251° West 360 414 29,200 1,600 Climbing Boston Center
Wed 09:24:54 AM 41.9769 -72.1358 237° Southwest 355 409 30,900 1,400 Climbing Boston Center
Wed 09:25:54 AM 41.9250 -72.2475 238° Southwest 355 409 32,000 550 Climbing Boston Center
Wed 09:26:54 AM 41.8711 -72.3647 238° Southwest 365 420 32,000  Level Boston Center
Wed 09:27:54 AM 41.8147 -72.4819 237° Southwest 371 427 32,000  Level Boston Center
Wed 09:28:54 AM 41.7583 -72.5986 237° Southwest 371 427 32,000  Level Boston Center
Wed 09:30:00 AM 41.7074 -72.6808 230° Southwest  Level FlightAware Approximate
Wed 09:30:54 AM 41.6517 -72.8206 230° Southwest 371 427 32,000  Level Boston Center
Wed 09:32:06 AM 41.5864 -72.9592 238° Southwest 371 427 32,000  Level Boston Center
Wed 09:33:06 AM 41.5275 -73.0833 238° Southwest 371 427 32,000  Level Boston Center
Wed 09:34:06 AM 41.4725 -73.1992 238° Southwest 371 427 32,000  Level Boston Center
Wed 09:35:06 AM 41.4111 -73.3175 235° Southwest 371 427 32,000  Level Boston Center
Wed 09:36:50 AM 41.3239 -73.5008 238° Southwest 372 428 32,000  Level New York Center
Wed 09:37:50 AM 41.2628 -73.6142 234° Southwest 372 428 32,000  Level New York Center
Wed 09:38:50 AM 41.1997 -73.7244 233° Southwest 372 428 32,000  Level New York Center
Wed 09:39:51 AM 41.1344 -73.8344 232° Southwest 378 435 32,000  Level New York Center
Wed 09:40:49 AM 41.0692 -73.9417 231° Southwest 383 441 32,000  Level New York Center
Wed 09:41:49 AM 41.0036 -74.0486 231° Southwest 383 441 32,000  Level New York Center
Wed 09:42:50 AM 40.9400 -74.1608 233° Southwest 383 441 32,000 -984 Level New York Center
Wed 09:43:51 AM 40.8639 -74.2750 229° Southwest 383 441 30,000 -1,934 Descending New York Center
Wed 09:44:51 AM 40.8022 -74.3814 233° Southwest 388 447 28,100 -1,017 Descending New York Center
Wed 09:45:49 AM 40.7386 -74.4847 231° Southwest 382 440 28,000 -303 Descending New York Center
Wed 09:46:50 AM 40.6650 -74.5739 223° Southwest 377 434 27,500 -738 Descending New York Center
Wed 09:47:51 AM 40.5733 -74.6397 209° Southwest 370 426 26,500 -992 Descending New York Center
Wed 09:48:51 AM 40.5014 -74.7314 224° Southwest 370 426 25,500 -1,026 Descending New York Center
Wed 09:49:48 AM 40.4417 -74.8369 233° Southwest 364 419 24,500 -1,017 Descending New York Center
Wed 09:50:49 AM 40.3817 -74.9425 233° Southwest 369 425 23,500 -984 Descending New York Center
Wed 09:51:50 AM 40.3217 -75.0478 233° Southwest 369 425 22,500 -1,200 Descending New York Center
Wed 09:52:49 AM 40.2614 -75.1528 233° Southwest 369 425 21,100 -1,450 Descending New York Center
Wed 09:53:50 AM 40.2033 -75.2578 234° Southwest 369 425 19,600 -1,450 Descending New York Center
Wed 09:54:49 AM 40.1456 -75.3517 231° Southwest 374 430 18,200 -807 Descending New York Center
Wed 09:55:49 AM 40.0706 -75.4581 227° Southwest 369 425 18,000 -101 Descending New York Center
Wed 09:56:48 AM 40.0039 -75.5539 228° Southwest 363 418 18,000 -300 Level New York Center
Wed 09:57:49 AM 39.9358 -75.6439 225° Southwest 355 409 17,400 -843 Descending New York Center
Wed 09:58:49 AM 39.8792 -75.7483 235° Southwest 361 415 16,300 -1,190 Descending New York Center
Wed 09:59:50 AM 39.8247 -75.8497 235° Southwest 355 409 15,000 -1,474 Descending New York Center
Wed 10:01:44 AM 39.7167 -76.0500 235° Southwest 336 387 12,000 -1,034 Descending Potomac TRACON
Wed 10:02:44 AM 39.6833 -76.1333 243° Southwest 289 333 12,000 -190 Level Potomac TRACON
Wed 10:03:50 AM 39.6333 -76.2333 237° Southwest 291 335 11,600 -667 Descending Potomac TRACON
Wed 10:04:50 AM 39.5833 -76.3167 232° Southwest 281 323 10,600 -1,000 Descending Potomac TRACON
Wed 10:05:50 AM 39.5333 -76.4000 232° Southwest 280 322 9,600 -1,300 Descending Potomac TRACON
Wed 10:06:50 AM 39.4833 -76.4833 232° Southwest 281 323 8,000 -1,600 Descending Potomac TRACON
Wed 10:07:50 AM 39.4333 -76.5500 226° Southwest 288 331 6,400 -1,500 Descending Potomac TRACON
Wed 10:08:50 AM 39.3667 -76.5000 150° Southeast 292 336 5,000 -1,200 Descending Potomac TRACON
Wed 10:09:50 AM 39.3167 -76.4333 134° Southeast 280 322 4,000 -496 Descending Potomac TRACON
Wed 10:10:51 AM 39.2500 -76.3667 142° Southeast 281 323 4,000  Level Potomac TRACON
Wed 10:11:51 AM 39.1833 -76.3500 169° South 285 328 4,000  Level Potomac TRACON
Wed 10:12:51 AM 39.1000 -76.4000 205° Southwest 282 325 4,000  Level Potomac TRACON
Wed 10:13:51 AM 39.0500 -76.4500 218° Southwest 247 284 4,000 -450 Level Potomac TRACON
Wed 10:14:51 AM 39.0333 -76.5167 252° West 223 257 3,100 -750 Descending Potomac TRACON
Wed 10:15:51 AM 39.0667 -76.5667 311° West 205 236 2,500 -843 Descending Potomac TRACON
Wed 10:16:52 AM 39.1167 -76.6167 322° Northwest 182 209 1,400 -893 Descending Potomac TRACON
Wed 10:17:52 AM 39.1500 -76.6500 322° Northwest 132 152 700 -700 Descending Potomac TRACON

Login

Don't have an account? Register now (free) for customized features, flight alerts, and more!